Time;durP1;ratioP1;P1;durP2;ratioP2;P2;SDS_P1;SDS_P2;PMS_P1;PMS_P2;Temp;Humidity;BMP_temperature;BMP_pressure;BME280_temperature;BME280_humidity;BME280_pressure;Samples;Min_cycle;Max_cycle;Signal;HPM_P1;HPM_P2
2022/09/19 00:00:51;;;;;;;0.40;0.40;;;;;;;12.71;88.79;101613.78;2090161;28;20511;-68
2022/09/19 00:01:55;;;;;;;0.40;0.40;;;;;;;12.73;88.55;101610.72;2089354;28;20044;-68
2022/09/19 00:02:59;;;;;;;0.30;0.30;;;;;;;12.74;87.82;101615.00;2092344;28;20050;-69
2022/09/19 00:04:04;;;;;;;0.38;0.38;;;;;;;12.77;88.03;101622.47;2092971;28;20060;-67
2022/09/19 00:05:08;;;;;;;0.40;0.40;;;;;;;12.78;87.53;101619.41;2089133;28;20053;-67
2022/09/19 00:06:13;;;;;;;0.40;0.40;;;;;;;12.81;87.76;101621.44;2094870;28;20088;-67
2022/09/19 00:07:16;;;;;;;0.40;0.40;;;;;;;12.82;88.10;101623.03;2090686;28;20593;-67
2022/09/19 00:08:19;;;;;;;0.40;0.40;;;;;;;12.84;87.61;101628.13;2092859;28;20064;-68
2022/09/19 00:09:24;;;;;;;0.40;0.40;;;;;;;12.87;87.85;101630.97;2091738;28;20063;-71
2022/09/19 00:10:27;;;;;;;0.40;0.40;;;;;;;12.87;88.01;101625.53;2089227;28;20492;-70
2022/09/19 00:11:30;;;;;;;0.32;0.32;;;;;;;12.88;87.91;101637.16;2088938;28;20164;-71
2022/09/19 00:12:33;;;;;;;0.40;0.40;;;;;;;12.88;88.45;101624.41;2083422;28;20050;-71
2022/09/19 00:13:39;;;;;;;0.40;0.40;;;;;;;12.90;88.22;101629.50;2091929;28;20055;-68
2022/09/19 00:14:43;;;;;;;0.40;0.40;;;;;;;12.89;88.50;101628.69;2091647;28;20052;-68
2022/09/19 00:15:49;;;;;;;0.30;0.30;;;;;;;12.89;88.38;101634.09;2092222;28;20540;-68
2022/09/19 00:16:56;;;;;;;0.40;0.40;;;;;;;12.89;88.50;101628.69;2090029;28;20048;-67
2022/09/19 00:17:59;;;;;;;0.40;0.40;;;;;;;12.88;87.94;101627.13;2089826;28;20503;-68
2022/09/19 00:19:04;;;;;;;0.40;0.40;;;;;;;12.89;88.44;101628.69;2089235;28;20067;-67
2022/09/19 00:20:09;;;;;;;0.40;0.40;;;;;;;12.89;88.16;101634.09;2089494;28;20049;-68
2022/09/19 00:21:17;;;;;;;0.40;0.40;;;;;;;12.89;87.79;101639.53;2090142;28;20166;-68
2022/09/19 00:22:20;;;;;;;0.40;0.40;;;;;;;12.88;87.44;101637.97;2090576;28;20526;-68
2022/09/19 00:24:46;;;;;;;0.40;0.40;;;;;;;12.90;87.10;101641.13;2096930;28;20105;-68
2022/09/19 00:25:56;;;;;;;0.40;0.40;;;;;;;12.90;87.52;101637.63;2089476;28;20116;-68
2022/09/19 00:27:03;;;;;;;0.35;0.35;;;;;;;12.91;87.11;101642.72;2089339;28;20056;-68
2022/09/19 00:28:05;;;;;;;0.40;0.40;;;;;;;12.93;86.86;101645.88;2089103;28;20170;-67
2022/09/19 00:29:10;;;;;;;0.40;0.40;;;;;;;12.95;86.94;101642.84;2089480;28;20098;-67
2022/09/19 00:30:14;;;;;;;0.40;0.40;;;;;;;12.96;86.63;101656.03;2088556;28;20049;-68
2022/09/19 00:31:20;;;;;;;0.40;0.40;;;;;;;12.96;86.07;101656.03;2096351;28;20064;-67
2022/09/19 00:32:25;;;;;;;0.40;0.40;;;;;;;12.98;86.28;101658.41;2096092;28;20048;-67
2022/09/19 00:33:30;;;;;;;0.40;0.40;;;;;;;12.98;85.66;101655.72;2095975;28;20541;-67
2022/09/19 00:34:35;;;;;;;0.40;0.40;;;;;;;12.98;86.07;101653.00;2094105;28;20052;-68
2022/09/19 00:35:37;;;;;;;0.40;0.40;;;;;;;12.99;85.63;101649.16;2089496;28;20061;-68
2022/09/19 00:36:41;;;;;;;0.40;0.40;;;;;;;13.00;85.24;101656.97;2093275;28;20049;-67
2022/09/19 00:37:43;;;;;;;0.40;0.40;;;;;;;13.01;85.26;101652.34;2095610;28;20044;-67
2022/09/19 00:38:47;;;;;;;0.40;0.40;;;;;;;13.02;85.00;101651.22;2093507;28;20566;-67
2022/09/19 00:39:50;;;;;;;0.50;0.50;;;;;;;13.03;84.77;101653.59;2088922;28;20049;-67
2022/09/19 00:40:54;;;;;;;0.40;0.40;;;;;;;13.04;84.97;101662.53;2092257;28;20415;-67
2022/09/19 00:41:57;;;;;;;0.40;0.40;;;;;;;13.05;85.02;101656.00;2089192;28;20181;-67
2022/09/19 00:43:01;;;;;;;0.40;0.40;;;;;;;13.02;84.53;101660.16;2089109;28;20110;-68
2022/09/19 00:44:05;;;;;;;0.40;0.40;;;;;;;13.06;84.59;101660.28;2092618;28;20492;-69
2022/09/19 00:45:14;;;;;;;0.40;0.40;;;;;;;13.03;84.01;101650.88;2090542;28;20060;-69
2022/09/19 00:46:20;;;;;;;0.40;0.40;;;;;;;13.04;83.90;101652.47;2089694;28;20053;-68
2022/09/19 00:47:33;;;;;;;0.40;0.40;;;;;;;13.06;84.24;101654.84;2095113;28;20055;-68
2022/09/19 00:48:38;;;;;;;0.40;0.40;;;;;;;13.04;84.39;101657.91;2089041;28;20053;-68
2022/09/19 00:49:47;;;;;;;0.40;0.40;;;;;;;13.06;84.08;101654.84;2093695;28;20052;-67
2022/09/19 00:50:55;;;;;;;0.40;0.40;;;;;;;13.04;84.01;101663.31;2095694;28;20048;-67
2022/09/19 00:52:00;;;;;;;0.40;0.40;;;;;;;13.07;84.03;101656.41;2095253;28;20048;-68
2022/09/19 00:53:09;;;;;;;0.30;0.30;;;;;;;13.09;83.75;101654.16;2096484;28;20087;-68
2022/09/19 00:54:13;;;;;;;0.40;0.40;;;;;;;13.09;83.88;101663.09;2095478;28;20520;-68
2022/09/19 00:55:18;;;;;;;0.40;0.40;;;;;;;13.10;83.38;101656.53;2096657;28;20064;-69
2022/09/19 00:56:23;;;;;;;0.40;0.40;;;;;;;13.13;83.35;101669.41;2089246;28;20530;-68
2022/09/19 00:57:37;;;;;;;0.40;0.40;;;;;;;13.13;83.38;101665.91;2090166;28;20504;-68
2022/09/19 00:58:43;;;;;;;0.40;0.40;;;;;;;13.14;82.72;101662.09;2091568;28;20060;-68
2022/09/19 00:59:49;;;;;;;0.40;0.40;;;;;;;13.14;82.28;101668.31;2092613;28;20512;-67
2022/09/19 01:00:53;;;;;;;0.40;0.40;;;;;;;13.14;82.51;101665.59;2089131;28;20060;-68
2022/09/19 01:01:59;;;;;;;0.40;0.40;;;;;;;13.14;82.11;101662.88;2088523;28;20103;-68
2022/09/19 01:03:06;;;;;;;0.30;0.30;;;;;;;13.16;81.73;101666.03;2088602;28;20060;-68
2022/09/19 01:04:15;;;;;;;0.40;0.40;;;;;;;13.15;81.62;101664.47;2089818;28;20057;-67
2022/09/19 01:05:27;;;;;;;0.40;0.40;;;;;;;13.11;81.53;101662.78;2089612;28;20048;-68
2022/09/19 01:06:48;;;;;;;0.40;0.40;;;;;;;13.09;81.73;101673.94;2095616;28;20072;-68
2022/09/19 01:08:09;;;;;;;0.40;0.40;;;;;;;13.09;81.24;101676.66;2090723;28;20127;-67
2022/09/19 01:09:35;;;;;;;0.40;0.40;;;;;;;13.07;82.02;101669.97;2094139;28;20056;-67
2022/09/19 01:10:53;;;;;;;0.40;0.40;;;;;;;13.07;81.99;101684.34;2093059;28;20131;-68
2022/09/19 01:12:24;;;;;;;0.40;0.40;;;;;;;13.03;82.25;101677.97;2088159;28;20055;-69
2022/09/19 01:13:37;;;;;;;0.30;0.30;;;;;;;13.05;82.79;101675.72;2087366;28;20621;-67
2022/09/19 01:15:13;;;;;;;0.40;0.40;;;;;;;13.03;82.41;101677.22;2089363;28;20520;-67
2022/09/19 01:16:20;;;;;;;0.40;0.40;;;;;;;13.04;82.60;101668.75;2086705;28;20573;-69
2022/09/19 01:17:31;;;;;;;0.40;0.40;;;;;;;13.03;82.75;101667.13;2093597;28;20718;-67
2022/09/19 01:18:41;;;;;;;0.50;0.50;;;;;;;13.04;83.18;101673.34;2087557;28;20095;-67
2022/09/19 01:20:12;;;;;;;0.40;0.40;;;;;;;13.00;83.40;101670.53;2080713;28;20056;-67
2022/09/19 01:21:38;;;;;;;0.40;0.40;;;;;;;12.98;83.48;101659.22;2090641;28;20105;-67
2022/09/19 01:22:55;;;;;;;0.40;0.40;;;;;;;12.96;83.76;101664.19;2093645;28;20104;-67
2022/09/19 01:24:20;;;;;;;0.30;0.30;;;;;;;12.95;83.60;101673.44;2095165;28;20192;-67
2022/09/19 01:25:31;;;;;;;0.35;0.35;;;;;;;12.95;83.22;101673.44;2084602;28;20057;-67
2022/09/19 01:26:49;;;;;;;0.30;0.30;;;;;;;12.96;83.67;101676.94;2073523;28;20065;-67
2022/09/19 01:28:18;;;;;;;0.40;0.40;;;;;;;12.92;83.71;101671.38;2082196;28;20098;-68
2022/09/19 01:29:32;;;;;;;0.40;0.40;;;;;;;12.95;83.37;101670.75;2090846;28;20091;-67
2022/09/19 01:30:41;;;;;;;0.40;0.40;;;;;;;12.97;83.23;101673.88;2096201;28;20059;-68
2022/09/19 01:31:54;;;;;;;0.40;0.40;;;;;;;12.99;83.01;101676.25;2093474;28;20094;-68
2022/09/19 01:33:06;;;;;;;0.30;0.30;;;;;;;13.00;82.71;101672.44;2091118;28;20095;-67
2022/09/19 01:34:13;;;;;;;0.40;0.40;;;;;;;13.02;82.50;101681.84;2091814;28;20629;-67
2022/09/19 01:35:22;;;;;;;0.40;0.40;;;;;;;13.04;82.06;101678.78;2091138;28;20056;-67
2022/09/19 01:36:31;;;;;;;0.40;0.40;;;;;;;13.07;82.08;101689.75;2088324;28;20060;-67
2022/09/19 01:37:41;;;;;;;0.40;0.40;;;;;;;13.08;82.03;101691.31;2088178;28;20081;-68
2022/09/19 01:38:47;;;;;;;0.40;0.40;;;;;;;13.10;82.08;101689.06;2087536;28;20084;-68
2022/09/19 01:39:53;;;;;;;0.40;0.40;;;;;;;13.12;83.13;101692.25;2086281;28;20052;-68
2022/09/19 01:40:57;;;;;;;0.40;0.40;;;;;;;13.13;83.46;101679.47;2086436;28;20461;-68
2022/09/19 01:42:01;;;;;;;0.40;0.40;;;;;;;13.12;83.94;101686.84;2095731;28;20052;-68
2022/09/19 01:43:12;;;;;;;0.40;0.40;;;;;;;13.09;85.18;101687.50;2094861;28;20443;-68
2022/09/19 01:44:18;;;;;;;0.40;0.40;;;;;;;13.09;85.32;101679.38;2083448;28;20470;-68
2022/09/19 01:45:26;;;;;;;0.40;0.40;;;;;;;13.09;84.77;101690.22;2074195;28;20077;-68
2022/09/19 01:46:41;;;;;;;0.40;0.40;;;;;;;13.06;85.12;101688.19;2083622;28;20049;-68
2022/09/19 01:47:54;;;;;;;0.40;0.40;;;;;;;13.03;84.88;101683.41;2087921;28;20133;-67
2022/09/19 01:49:06;;;;;;;0.40;0.40;;;;;;;13.01;84.34;101701.16;2086423;28;20057;-68
2022/09/19 01:50:18;;;;;;;0.30;0.30;;;;;;;12.98;84.93;101708.00;2079404;28;20053;-68
2022/09/19 01:51:30;;;;;;;0.40;0.40;;;;;;;12.93;84.51;101702.00;2074514;28;20049;-68
2022/09/19 01:52:48;;;;;;;0.40;0.40;;;;;;;12.88;84.30;101703.00;2087876;28;20123;-68
2022/09/19 01:54:10;;;;;;;0.40;0.40;;;;;;;12.85;85.37;101711.81;2088787;28;20044;-67
2022/09/19 01:55:30;;;;;;;0.40;0.40;;;;;;;12.78;85.12;101716.97;2086277;28;20064;-68
2022/09/19 01:56:42;;;;;;;;;;;;;;;12.61;86.27;101713.63;2088329;28;20500;-70
2022/09/19 01:57:52;;;;;;;0.45;0.45;;;;;;;12.65;86.03;101711.84;2081604;28;20333;-70
2022/09/19 01:59:11;;;;;;;0.40;0.40;;;;;;;12.64;85.83;101702.91;2083173;28;20087;-70
2022/09/19 02:00:18;;;;;;;0.40;0.40;;;;;;;12.63;86.34;101697.84;2087817;28;20049;-69
2022/09/19 02:01:29;;;;;;;0.40;0.40;;;;;;;12.62;85.97;101696.25;2088300;28;20133;-67
2022/09/19 02:02:39;;;;;;;0.40;0.40;;;;;;;12.60;86.05;101693.09;2089872;28;20513;-68
2022/09/19 02:03:48;;;;;;;;;;;;;;;12.46;86.80;101689.88;2088634;28;20087;-68
2022/09/19 02:04:58;;;;;;;0.40;0.40;;;;;;;12.52;86.57;101692.03;2081212;28;19968;-67
2022/09/19 02:06:08;;;;;;;0.40;0.40;;;;;;;12.54;86.61;101684.34;2088224;28;20060;-67
2022/09/19 02:07:21;;;;;;;0.47;0.47;;;;;;;12.56;86.18;101678.63;2092431;28;20063;-68
2022/09/19 02:08:29;;;;;;;0.40;0.40;;;;;;;12.56;86.69;101684.81;2092299;28;20041;-68
2022/09/19 02:09:44;;;;;;;0.40;0.40;;;;;;;12.56;86.38;101673.97;2082682;28;20049;-68
2022/09/19 02:10:54;;;;;;;0.40;0.40;;;;;;;12.57;86.60;101672.88;2083570;28;20053;-67
2022/09/19 02:12:03;;;;;;;0.40;0.40;;;;;;;12.59;86.79;101681.44;2085279;28;20053;-67
2022/09/19 02:13:11;;;;;;;0.40;0.40;;;;;;;12.60;87.06;101682.25;2088644;28;20135;-68
2022/09/19 02:14:34;;;;;;;0.43;0.43;;;;;;;12.58;87.02;101681.78;2088752;28;20120;-68
2022/09/19 02:15:41;;;;;;;0.40;0.40;;;;;;;12.60;86.88;101680.34;2088173;28;20570;-67
2022/09/19 02:16:52;;;;;;;0.50;0.50;;;;;;;12.58;87.23;101682.59;2081107;28;20041;-68
2022/09/19 02:17:58;;;;;;;0.50;0.50;;;;;;;12.58;86.96;101682.59;2090300;28;20719;-68
2022/09/19 02:19:09;;;;;;;0.43;0.43;;;;;;;12.58;86.88;101688.00;2088455;28;20756;-68
2022/09/19 02:20:17;;;;;;;0.50;0.50;;;;;;;12.58;87.12;101687.19;2088568;28;20413;-68
2022/09/19 02:21:25;;;;;;;0.47;0.47;;;;;;;12.60;87.18;101683.03;2092859;28;20048;-68
2022/09/19 02:22:30;;;;;;;0.50;0.50;;;;;;;12.60;86.62;101685.75;2094923;28;20551;-68
2022/09/19 02:23:39;;;;;;;0.40;0.40;;;;;;;12.63;86.23;101687.78;2088029;28;20078;-68
2022/09/19 02:24:45;;;;;;;0.50;0.50;;;;;;;12.64;86.06;101686.66;2089660;28;20103;-67
2022/09/19 02:25:51;;;;;;;0.50;0.50;;;;;;;12.66;86.23;101684.41;2078133;28;20111;-68
2022/09/19 02:27:01;;;;;;;0.50;0.50;;;;;;;12.68;86.09;101692.22;2079942;28;20045;-67
2022/09/19 02:28:08;;;;;;;0.50;0.50;;;;;;;12.67;85.77;101691.41;2089949;28;20053;-67
2022/09/19 02:29:19;;;;;;;0.50;0.50;;;;;;;12.69;85.55;101699.19;2092492;28;20506;-68
2022/09/19 02:30:25;;;;;;;0.40;0.40;;;;;;;12.69;85.73;101693.78;2081243;28;20049;-68
2022/09/19 02:31:27;;;;;;;0.50;0.50;;;;;;;12.71;85.64;101697.75;2088075;28;20082;-67
2022/09/19 02:32:33;;;;;;;0.50;0.50;;;;;;;12.73;85.25;101695.50;2084642;28;20136;-67
2022/09/19 02:33:36;;;;;;;0.50;0.50;;;;;;;12.76;85.57;101702.97;2087349;28;20048;-67
2022/09/19 02:34:40;;;;;;;0.50;0.50;;;;;;;12.77;85.21;101701.84;2090744;28;20565;-67
2022/09/19 02:35:50;;;;;;;0.40;0.40;;;;;;;12.75;85.22;101706.78;2092633;28;20132;-68
2022/09/19 02:37:01;;;;;;;0.50;0.50;;;;;;;12.74;85.21;101701.72;2096213;28;20091;-68
2022/09/19 02:38:14;;;;;;;0.40;0.40;;;;;;;12.69;85.00;101705.41;2088008;28;20447;-67
2022/09/19 02:39:23;;;;;;;0.50;0.50;;;;;;;12.70;84.96;101706.22;2087698;28;20047;-68
2022/09/19 02:40:39;;;;;;;0.40;0.40;;;;;;;12.66;84.60;101711.50;2082225;28;20085;-68
2022/09/19 02:41:52;;;;;;;0.40;0.40;;;;;;;12.62;85.03;101707.88;2090208;28;20053;-68
2022/09/19 02:43:03;;;;;;;0.40;0.40;;;;;;;12.60;85.12;101703.91;2088183;28;20087;-68
2022/09/19 02:44:18;;;;;;;0.40;0.40;;;;;;;12.56;85.48;101701.06;2087829;28;20539;-69
2022/09/19 02:45:28;;;;;;;0.45;0.45;;;;;;;12.56;85.46;101701.06;2082014;28;20053;-69
2022/09/19 02:46:43;;;;;;;0.40;0.40;;;;;;;12.56;85.23;101703.78;2083702;28;20052;-69
2022/09/19 02:47:51;;;;;;;0.40;0.40;;;;;;;12.55;85.56;101704.13;2092307;28;20090;-69
2022/09/19 02:48:57;;;;;;;0.43;0.43;;;;;;;12.56;85.18;101701.06;2095045;28;20052;-68
2022/09/19 02:50:07;;;;;;;0.40;0.40;;;;;;;12.56;85.30;101701.06;2094770;28;20044;-67
2022/09/19 02:51:17;;;;;;;0.40;0.40;;;;;;;12.56;85.59;101706.50;2096033;28;20045;-67
2022/09/19 02:52:26;;;;;;;0.50;0.50;;;;;;;12.58;85.68;101706.16;2095282;28;20055;-67
2022/09/19 02:53:33;;;;;;;0.50;0.50;;;;;;;12.58;85.36;101690.72;2089599;28;20049;-67
2022/09/19 02:54:39;;;;;;;0.40;0.40;;;;;;;12.61;85.45;101694.66;2077329;28;20923;-67
2022/09/19 02:55:47;;;;;;;0.50;0.50;;;;;;;12.62;85.35;101694.31;2087820;28;20049;-68
2022/09/19 02:56:52;;;;;;;0.40;0.40;;;;;;;12.64;84.70;101700.22;2095683;28;20048;-67
2022/09/19 02:58:00;;;;;;;0.40;0.40;;;;;;;12.66;84.81;101703.38;2091993;28;20154;-68
2022/09/19 02:59:09;;;;;;;0.40;0.40;;;;;;;12.69;84.47;101700.00;2079209;28;20703;-68
2022/09/19 03:00:21;;;;;;;0.40;0.40;;;;;;;12.69;84.46;101705.41;2081752;28;20053;-68
2022/09/19 03:01:28;;;;;;;0.40;0.40;;;;;;;12.71;84.37;101695.06;2085984;28;20056;-68
2022/09/19 03:02:35;;;;;;;0.50;0.50;;;;;;;12.73;84.76;101697.44;2095417;28;20044;-68
2022/09/19 03:05:09;;;;;;;0.40;0.40;;;;;;;12.75;84.23;101706.03;2095371;28;20053;-67
2022/09/19 03:06:15;;;;;;;0.40;0.40;;;;;;;12.78;84.67;101706.13;2088105;28;20487;-68
2022/09/19 03:07:24;;;;;;;0.40;0.40;;;;;;;12.80;84.72;101708.50;2084042;28;20070;-67
2022/09/19 03:08:36;;;;;;;0.40;0.40;;;;;;;12.80;84.23;101706.59;2079899;28;20057;-68
2022/09/19 03:09:46;;;;;;;0.40;0.40;;;;;;;12.83;84.78;101708.63;2064776;28;20129;-69
2022/09/19 03:10:52;;;;;;;0.40;0.40;;;;;;;12.83;84.25;101699.69;2080055;28;20053;-68
2022/09/19 03:12:18;;;;;;;0.50;0.50;;;;;;;12.83;84.20;101703.22;2096415;28;20129;-68
2022/09/19 03:13:24;;;;;;;0.50;0.50;;;;;;;12.82;84.49;101704.34;2086118;28;20086;-68
2022/09/19 03:14:32;;;;;;;0.50;0.50;;;;;;;12.83;84.29;101699.69;2084283;28;20511;-66
2022/09/19 03:15:39;;;;;;;0.40;0.40;;;;;;;12.85;83.91;101703.69;2092095;28;20137;-67
2022/09/19 03:16:47;;;;;;;0.40;0.40;;;;;;;12.86;84.01;101709.91;2087015;28;20057;-67
2022/09/19 03:17:54;;;;;;;0.40;0.40;;;;;;;12.85;83.34;101709.09;2074590;28;20064;-68
2022/09/19 03:18:58;;;;;;;0.38;0.38;;;;;;;12.85;83.24;101706.38;2088267;28;20590;-68
2022/09/19 03:20:02;;;;;;;0.40;0.40;;;;;;;12.88;83.12;101710.34;2091289;28;20091;-67
2022/09/19 03:21:20;;;;;;;0.40;0.40;;;;;;;12.85;82.52;101711.81;2087993;28;20420;-68
2022/09/19 03:22:23;;;;;;;0.40;0.40;;;;;;;12.86;82.76;101710.66;2078528;28;20501;-68
2022/09/19 03:23:31;;;;;;;0.40;0.40;;;;;;;12.87;82.32;101708.75;2090764;28;20055;-68
2022/09/19 03:24:35;;;;;;;0.40;0.40;;;;;;;12.86;82.32;101704.47;2090121;28;20436;-69
2022/09/19 03:25:38;;;;;;;0.40;0.40;;;;;;;12.87;82.33;101712.28;2097079;28;20048;-69
2022/09/19 03:26:41;;;;;;;0.47;0.47;;;;;;;12.88;82.19;101708.41;2095246;28;20119;-68
2022/09/19 03:27:44;;;;;;;0.40;0.40;;;;;;;12.88;81.80;101711.13;2095068;28;20131;-68
2022/09/19 03:28:54;;;;;;;0.40;0.40;;;;;;;12.87;81.85;101714.97;2092948;28;20056;-68
2022/09/19 03:30:00;;;;;;;0.40;0.40;;;;;;;12.87;81.43;101714.19;2084363;28;20057;-68
2022/09/19 03:31:03;;;;;;;0.30;0.30;;;;;;;12.88;81.48;101719.25;2081297;28;20049;-69
2022/09/19 03:32:06;;;;;;;0.40;0.40;;;;;;;12.88;81.42;101724.69;2096964;28;20074;-68
2022/09/19 03:33:11;;;;;;;0.40;0.40;;;;;;;12.89;81.59;101720.84;2078969;28;20064;-68
2022/09/19 03:34:13;;;;;;;0.40;0.40;;;;;;;12.89;81.42;101720.84;2083911;28;20057;-68
2022/09/19 03:35:20;;;;;;;0.40;0.40;;;;;;;12.90;81.43;101722.44;2095114;28;20056;-68
2022/09/19 03:36:28;;;;;;;0.40;0.40;;;;;;;12.90;81.14;101727.06;2080237;28;20048;-68
2022/09/19 03:37:32;;;;;;;0.40;0.40;;;;;;;12.88;81.63;101724.69;2082462;28;20102;-68
2022/09/19 03:38:37;;;;;;;0.40;0.40;;;;;;;12.89;80.98;101725.50;2089361;28;20072;-68
2022/09/19 03:39:40;;;;;;;0.40;0.40;;;;;;;12.84;81.17;101717.56;2086806;28;20397;-68
2022/09/19 03:40:47;;;;;;;0.35;0.35;;;;;;;12.84;81.52;101722.97;2081687;28;20063;-68
2022/09/19 03:41:51;;;;;;;0.40;0.40;;;;;;;12.82;81.04;101731.44;2088177;28;20118;-68
2022/09/19 03:42:53;;;;;;;0.32;0.32;;;;;;;12.82;81.38;101731.44;2087209;28;20048;-68
2022/09/19 03:44:01;;;;;;;0.40;0.40;;;;;;;12.81;80.98;101724.44;2081107;28;20049;-68
2022/09/19 03:45:04;;;;;;;0.40;0.40;;;;;;;12.79;81.25;101732.13;2095525;28;20091;-68
2022/09/19 03:46:09;;;;;;;0.40;0.40;;;;;;;12.79;80.91;101736.72;2086939;28;20848;-69
2022/09/19 03:47:15;;;;;;;0.50;0.50;;;;;;;12.78;81.18;101733.22;2092814;28;20560;-69
2022/09/19 03:48:21;;;;;;;0.50;0.50;;;;;;;12.78;81.08;101735.94;2076571;28;20065;-68
2022/09/19 03:49:23;;;;;;;0.40;0.40;;;;;;;12.75;80.87;101731.19;2082043;28;20102;-68
2022/09/19 03:50:27;;;;;;;0.40;0.40;;;;;;;12.76;80.93;101738.19;2089243;28;20049;-68
2022/09/19 03:51:40;;;;;;;0.50;0.50;;;;;;;12.74;81.22;101740.44;2079072;28;20049;-68
2022/09/19 03:52:48;;;;;;;0.50;0.50;;;;;;;12.74;80.59;101729.59;2078618;28;20045;-68
2022/09/19 03:53:52;;;;;;;0.50;0.50;;;;;;;12.73;81.07;101732.66;2086071;28;20053;-68
2022/09/19 03:55:00;;;;;;;0.40;0.40;;;;;;;12.72;80.89;101731.84;2080764;28;20327;-68
2022/09/19 03:56:05;;;;;;;0.50;0.50;;;;;;;12.72;81.08;101744.59;2068288;28;20096;-69
2022/09/19 03:57:09;;;;;;;0.45;0.45;;;;;;;12.75;81.00;101733.88;2073328;28;20045;-68
2022/09/19 03:58:11;;;;;;;0.50;0.50;;;;;;;12.74;80.74;101735.03;2086926;28;20049;-67
2022/09/19 03:59:14;;;;;;;0.50;0.50;;;;;;;12.76;81.21;101740.09;2088608;28;20428;-68
2022/09/19 04:00:18;;;;;;;0.50;0.50;;;;;;;12.75;81.69;101744.72;2088875;28;21079;-68
2022/09/19 04:01:22;;;;;;;0.60;0.60;;;;;;;12.78;81.54;101740.56;2088567;28;20422;-68
2022/09/19 04:02:28;;;;;;;0.50;0.50;;;;;;;12.80;81.35;101749.94;2091762;28;20528;-67
2022/09/19 04:03:31;;;;;;;0.50;0.50;;;;;;;12.83;81.52;101740.34;2096170;28;20056;-67
2022/09/19 04:04:34;;;;;;;0.50;0.50;;;;;;;12.86;81.73;101756.75;2090816;28;20064;-67
2022/09/19 04:05:36;;;;;;;0.50;0.50;;;;;;;12.88;81.47;101749.06;2089070;28;20837;-67
2022/09/19 04:06:40;;;;;;;0.50;0.50;;;;;;;12.91;81.60;101750.31;2079942;28;20057;-68
2022/09/19 04:07:43;;;;;;;0.50;0.50;;;;;;;12.91;82.37;101740.28;2075220;28;20049;-67
2022/09/19 04:08:46;;;;;;;0.50;0.50;;;;;;;12.93;82.17;101739.94;2081404;28;20053;-67
2022/09/19 04:09:49;;;;;;;0.50;0.50;;;;;;;12.94;82.00;101745.03;2073896;28;20540;-68
2022/09/19 04:10:52;;;;;;;0.50;0.50;;;;;;;12.97;82.39;101749.78;2066532;28;20633;-69
2022/09/19 04:11:56;;;;;;;0.50;0.50;;;;;;;12.97;81.94;101749.00;2084819;28;20082;-67
2022/09/19 04:13:01;;;;;;;0.50;0.50;;;;;;;12.96;81.92;101759.03;2086642;28;20061;-68
2022/09/19 04:14:03;;;;;;;0.50;0.50;;;;;;;12.96;81.96;101752.81;2074238;28;20053;-67
2022/09/19 04:15:08;;;;;;;0.50;0.50;;;;;;;12.95;81.53;101752.06;2081048;28;20045;-67
2022/09/19 04:16:10;;;;;;;0.50;0.50;;;;;;;12.92;81.43;101747.28;2086154;28;20086;-67
2022/09/19 04:17:15;;;;;;;0.50;0.50;;;;;;;12.91;81.82;101732.16;2096033;28;20435;-68
2022/09/19 04:18:27;;;;;;;0.50;0.50;;;;;;;12.88;82.50;101740.94;2081027;28;20103;-68
2022/09/19 04:19:30;;;;;;;0.50;0.50;;;;;;;12.87;82.80;101733.94;2072263;28;20080;-67
2022/09/19 04:20:51;;;;;;;0.50;0.50;;;;;;;12.83;82.83;101743.84;2083859;28;20132;-67
2022/09/19 04:22:10;;;;;;;0.50;0.50;;;;;;;12.81;83.40;101739.91;2095474;28;20063;-68
2022/09/19 04:23:19;;;;;;;0.52;0.52;;;;;;;12.79;82.94;101734.81;2086558;28;20041;-67
2022/09/19 04:24:43;;;;;;;0.60;0.60;;;;;;;12.78;83.66;101735.94;2088409;28;20091;-68
2022/09/19 04:25:53;;;;;;;0.50;0.50;;;;;;;12.78;83.10;101738.63;2095582;28;20084;-67
2022/09/19 04:27:17;;;;;;;0.50;0.50;;;;;;;12.77;83.54;101738.97;2095566;28;20056;-68
2022/09/19 04:28:23;;;;;;;0.60;0.60;;;;;;;12.78;82.69;101741.34;2090905;28;20786;-67
2022/09/19 04:29:27;;;;;;;0.50;0.50;;;;;;;12.81;82.81;101739.91;2074721;28;20053;-67
2022/09/19 04:30:30;;;;;;;0.57;0.57;;;;;;;12.83;82.54;101745.75;2074027;28;20585;-67
2022/09/19 04:31:38;;;;;;;0.50;0.50;;;;;;;12.84;83.26;101750.09;2086909;28;20477;-67
2022/09/19 04:32:41;;;;;;;0.50;0.50;;;;;;;12.83;82.67;101743.84;2096614;28;20518;-67
2022/09/19 04:33:45;;;;;;;0.50;0.50;;;;;;;12.87;82.70;101749.41;2094135;28;20102;-67
2022/09/19 04:34:49;;;;;;;0.50;0.50;;;;;;;12.86;82.65;101748.59;2093267;28;20056;-67
2022/09/19 04:35:52;;;;;;;0.40;0.40;;;;;;;12.86;83.16;101737.78;2088576;28;20045;-68
2022/09/19 04:36:54;;;;;;;0.40;0.40;;;;;;;12.87;82.65;101750.22;2088548;28;20053;-68
2022/09/19 04:37:57;;;;;;;0.50;0.50;;;;;;;12.89;82.53;101749.88;2093067;28;20053;-68
2022/09/19 04:39:02;;;;;;;0.50;0.50;;;;;;;12.88;82.82;101748.28;2086696;28;20048;-68
2022/09/19 04:40:08;;;;;;;0.40;0.40;;;;;;;12.88;82.17;101751.00;2088474;28;20423;-68
2022/09/19 04:41:12;;;;;;;0.40;0.40;;;;;;;12.88;82.26;101738.22;2084802;28;20144;-68
2022/09/19 04:42:14;;;;;;;0.50;0.50;;;;;;;12.90;82.06;101756.88;2083768;28;20128;-68
2022/09/19 04:43:21;;;;;;;0.43;0.43;;;;;;;12.91;82.00;101766.56;2088465;28;20513;-67
2022/09/19 04:44:44;;;;;;;0.50;0.50;;;;;;;12.87;81.59;101757.53;2090120;28;20056;-66
2022/09/19 04:46:09;;;;;;;0.50;0.50;;;;;;;12.87;81.56;101768.38;2086516;28;20084;-68
2022/09/19 04:47:21;;;;;;;0.50;0.50;;;;;;;12.86;81.25;101755.97;2089488;28;20451;-67
2022/09/19 04:48:24;;;;;;;0.50;0.50;;;;;;;12.88;81.09;101765.34;2091373;28;20048;-67
2022/09/19 04:49:36;;;;;;;0.50;0.50;;;;;;;12.88;80.65;101765.34;2085526;28;20048;-68
2022/09/19 04:50:38;;;;;;;0.50;0.50;;;;;;;12.86;81.24;101764.88;2075448;28;20659;-69
2022/09/19 04:51:41;;;;;;;0.50;0.50;;;;;;;12.88;80.66;101778.09;2074036;28;20132;-66
2022/09/19 04:52:43;;;;;;;0.50;0.50;;;;;;;12.88;80.81;101765.34;2080305;28;20091;-66
2022/09/19 04:53:46;;;;;;;0.52;0.52;;;;;;;12.87;80.23;101771.91;2086528;28;20037;-67
2022/09/19 04:54:48;;;;;;;0.50;0.50;;;;;;;12.88;79.95;101772.66;2082288;28;20060;-68
2022/09/19 04:55:54;;;;;;;0.50;0.50;;;;;;;12.87;79.70;101785.44;2076295;28;20052;-66
2022/09/19 04:56:56;;;;;;;0.50;0.50;;;;;;;12.86;79.39;101781.13;2094891;28;20461;-66
2022/09/19 04:58:00;;;;;;;0.50;0.50;;;;;;;12.85;79.05;101790.41;2097004;28;20089;-67
2022/09/19 04:59:03;;;;;;;0.50;0.50;;;;;;;12.86;78.86;101791.97;2093541;28;20060;-67
2022/09/19 05:00:09;;;;;;;0.60;0.60;;;;;;;12.85;79.41;101790.41;2086380;28;20545;-67
2022/09/19 05:01:13;;;;;;;0.50;0.50;;;;;;;12.83;78.76;101789.94;2085005;28;20056;-68
2022/09/19 05:02:18;;;;;;;0.50;0.50;;;;;;;12.82;79.00;101795.69;2081330;28;20053;-67
2022/09/19 05:03:25;;;;;;;0.50;0.50;;;;;;;12.81;79.08;101794.88;2088681;28;20060;-67
2022/09/19 05:04:29;;;;;;;0.50;0.50;;;;;;;12.80;78.55;101798.72;2096328;28;20063;-67
2022/09/19 05:05:32;;;;;;;0.50;0.50;;;;;;;12.79;79.12;101797.16;2087815;28;20537;-68
2022/09/19 05:06:35;;;;;;;0.50;0.50;;;;;;;12.79;78.77;101794.44;2093353;28;20040;-68
2022/09/19 05:07:39;;;;;;;0.40;0.40;;;;;;;12.80;79.05;101797.94;2079447;28;20057;-68
2022/09/19 05:08:48;;;;;;;0.50;0.50;;;;;;;12.79;78.94;101799.06;2077572;28;20880;-67
2022/09/19 05:10:04;;;;;;;0.50;0.50;;;;;;;12.78;78.94;101790.13;2083147;28;20448;-67
2022/09/19 05:11:20;;;;;;;0.50;0.50;;;;;;;12.79;79.13;101799.06;2088720;28;20080;-68
2022/09/19 05:12:28;;;;;;;0.40;0.40;;;;;;;12.79;79.11;101797.16;2088430;28;20057;-67
2022/09/19 05:13:40;;;;;;;0.50;0.50;;;;;;;12.82;79.33;101798.41;2087526;28;20081;-67
2022/09/19 05:14:51;;;;;;;0.50;0.50;;;;;;;12.81;79.28;101799.53;2083553;28;20042;-67
2022/09/19 05:15:59;;;;;;;0.50;0.50;;;;;;;12.82;79.96;101796.50;2093826;28;20583;-67
2022/09/19 05:17:07;;;;;;;0.50;0.50;;;;;;;12.83;80.18;101798.06;2095008;28;20084;-67
2022/09/19 05:18:12;;;;;;;0.50;0.50;;;;;;;12.86;80.05;101791.97;2087231;28;20053;-67
2022/09/19 05:19:14;;;;;;;0.50;0.50;;;;;;;12.87;80.20;101792.78;2087697;28;20126;-69
2022/09/19 05:20:19;;;;;;;0.50;0.50;;;;;;;12.89;79.87;101794.00;2084709;28;20416;-69